Jump to content


AMERICAN EAGLE FLIGHT MQ2275 FLOWN ON 08-27-2017 BY CAPTAIN JIM BOERMAN

Pilot StatsCaptain Jim Boerman (LDP136) • 4,578.9 total hours • 1,395 total flights [View Logbook]
FLIGHT DETAILS
StatusReceived and approved on 2017-08-27 at 13:08:02
Origin AirportLos Angeles Intl (KLAX) • Los Angeles, California, United States (126 feet MSL)
Filed Flight PlanKLAX FIM J1 AVE Q7 JUNEJ KLMT
Destination AirportKlamath Falls (KLMT) • Klamath Falls, Oregon, United States (4,094 feet MSL)
Alternate AirportRogue Valley Intl-Medford (KMFR) • Medford, Oregon, United States (1,335 feet MSL)
AirlineAmerican Eagle
AircraftEmbraer ERJ-135 (ER3 / ERJ-135)
FS Aircraft UsedPIC ERJ135LR - Eagle 2013 - No Yoke
Cruising AltitudeFL340
Distance Flown518 nautical miles
Passengers Onboard13 passengers (35.14% full)
DEPARTURE DETAILS
Time Out08:48:30
Taxi Data40,615 lbs total with 8,577 lbs of fuel onboard
Takeoff Data08:57:39 (9 minutes after leaving gate/ramp) • 40,401 lbs total • 8° pitch at 140 knots
Departure METARKLAX 271453Z 24005KT 3/4SM R25L/P6000FT BR OVC002 19/18 A2996 RMK AO2 SLP143 VIS S-NW 1/2 T01890183 53007
ARRIVAL DETAILS
Landing Data10:19:42 • 37,133 lbs total • 2° pitch doing 116 knots at a rate of -142.26 feet/minute with 5,013 lbs of fuel onboard
Time In10:24:19 (5 minutes after landing)
Ramp Weight37,048 lbs total
Total Fuel Used3,564 lbs
Total Block Time01:33:41 (1.6 hours) while 14 minutes were spent on the ground
Arrival METARKLMT 271653Z 01003KT 6SM HZ FU CLR 23/08 A3025 RMK AO2 SLP203 T02280078
MISCELLANEOUS DETAILS
LiveDISPATCH Version4.8.3.1
FS Version
FSUIPC Version4.93
OS VersionWindows 7 32-bit
Screen Resolution1920 x 1080
Pilot's CommentsNo Comments Reported
FLIGHT MAP